sensor_id;sensor_type;location;lat;lon;timestamp;temperature;humidity
7666;DHT22;3875;46.562;4.898;2022-07-15T00:00:14;25.60;60.30
7666;DHT22;3875;46.562;4.898;2022-07-15T00:02:40;25.70;60.30
7666;DHT22;3875;46.562;4.898;2022-07-15T00:05:07;25.70;60.30
7666;DHT22;3875;46.562;4.898;2022-07-15T00:07:33;25.80;60.20
7666;DHT22;3875;46.562;4.898;2022-07-15T00:09:59;25.90;60.10
7666;DHT22;3875;46.562;4.898;2022-07-15T00:12:48;25.90;60.10
7666;DHT22;3875;46.562;4.898;2022-07-15T00:15:15;26.00;59.60
7666;DHT22;3875;46.562;4.898;2022-07-15T00:17:41;26.00;59.30
7666;DHT22;3875;46.562;4.898;2022-07-15T00:20:08;26.00;58.80
7666;DHT22;3875;46.562;4.898;2022-07-15T00:22:36;26.10;59.00
7666;DHT22;3875;46.562;4.898;2022-07-15T00:25:02;26.10;58.90
7666;DHT22;3875;46.562;4.898;2022-07-15T00:27:28;26.10;59.00
7666;DHT22;3875;46.562;4.898;2022-07-15T00:29:54;26.10;59.10
7666;DHT22;3875;46.562;4.898;2022-07-15T00:32:20;26.10;59.10
7666;DHT22;3875;46.562;4.898;2022-07-15T00:34:46;26.00;59.20
7666;DHT22;3875;46.562;4.898;2022-07-15T00:37:12;26.00;59.20
7666;DHT22;3875;46.562;4.898;2022-07-15T00:39:37;26.00;59.20
7666;DHT22;3875;46.562;4.898;2022-07-15T00:42:03;26.00;59.10
7666;DHT22;3875;46.562;4.898;2022-07-15T00:44:29;26.00;58.90
7666;DHT22;3875;46.562;4.898;2022-07-15T00:46:55;26.00;59.00
7666;DHT22;3875;46.562;4.898;2022-07-15T00:49:22;26.00;59.10
7666;DHT22;3875;46.562;4.898;2022-07-15T00:51:50;25.90;59.10
7666;DHT22;3875;46.562;4.898;2022-07-15T00:54:21;25.90;59.10
7666;DHT22;3875;46.562;4.898;2022-07-15T00:56:54;25.90;59.10
7666;DHT22;3875;46.562;4.898;2022-07-15T00:59:22;25.80;59.00
7666;DHT22;3875;46.562;4.898;2022-07-15T01:01:49;25.70;59.20
7666;DHT22;3875;46.562;4.898;2022-07-15T01:04:17;25.70;59.30
7666;DHT22;3875;46.562;4.898;2022-07-15T01:06:43;25.70;59.30
7666;DHT22;3875;46.562;4.898;2022-07-15T01:09:09;25.70;59.20
7666;DHT22;3875;46.562;4.898;2022-07-15T01:11:36;25.60;59.10
7666;DHT22;3875;46.562;4.898;2022-07-15T01:14:02;25.50;59.30
7666;DHT22;3875;46.562;4.898;2022-07-15T01:16:28;25.50;59.40
7666;DHT22;3875;46.562;4.898;2022-07-15T01:18:54;25.50;59.30
7666;DHT22;3875;46.562;4.898;2022-07-15T01:21:21;25.40;59.40
7666;DHT22;3875;46.562;4.898;2022-07-15T01:23:47;25.40;59.40
7666;DHT22;3875;46.562;4.898;2022-07-15T01:26:14;25.30;59.40
7666;DHT22;3875;46.562;4.898;2022-07-15T01:28:40;25.20;59.60
7666;DHT22;3875;46.562;4.898;2022-07-15T01:31:06;25.20;59.70
7666;DHT22;3875;46.562;4.898;2022-07-15T01:33:33;25.10;59.90
7666;DHT22;3875;46.562;4.898;2022-07-15T01:35:59;25.10;59.80
7666;DHT22;3875;46.562;4.898;2022-07-15T01:38:26;25.10;59.80
7666;DHT22;3875;46.562;4.898;2022-07-15T01:40:52;25.10;59.90
7666;DHT22;3875;46.562;4.898;2022-07-15T01:43:18;25.10;59.80
7666;DHT22;3875;46.562;4.898;2022-07-15T01:45:45;25.10;59.80
7666;DHT22;3875;46.562;4.898;2022-07-15T01:48:12;25.10;59.90
7666;DHT22;3875;46.562;4.898;2022-07-15T01:50:58;25.00;59.90
7666;DHT22;3875;46.562;4.898;2022-07-15T01:53:26;24.90;60.00
7666;DHT22;3875;46.562;4.898;2022-07-15T01:55:52;24.80;60.30
7666;DHT22;3875;46.562;4.898;2022-07-15T01:58:18;24.70;60.30
7666;DHT22;3875;46.562;4.898;2022-07-15T02:00:44;24.70;60.50
7666;DHT22;3875;46.562;4.898;2022-07-15T02:03:10;24.60;60.60
7666;DHT22;3875;46.562;4.898;2022-07-15T02:05:36;24.60;60.60
7666;DHT22;3875;46.562;4.898;2022-07-15T02:08:02;24.60;60.60
7666;DHT22;3875;46.562;4.898;2022-07-15T02:10:29;24.50;60.80
7666;DHT22;3875;46.562;4.898;2022-07-15T02:13:12;24.50;60.80
7666;DHT22;3875;46.562;4.898;2022-07-15T02:15:39;24.50;60.70
7666;DHT22;3875;46.562;4.898;2022-07-15T02:18:06;24.40;60.90
7666;DHT22;3875;46.562;4.898;2022-07-15T02:20:32;24.30;61.10
7666;DHT22;3875;46.562;4.898;2022-07-15T02:22:58;24.30;61.20
7666;DHT22;3875;46.562;4.898;2022-07-15T02:25:29;24.30;61.20
7666;DHT22;3875;46.562;4.898;2022-07-15T02:27:56;24.20;61.40
7666;DHT22;3875;46.562;4.898;2022-07-15T02:30:24;24.10;61.50
7666;DHT22;3875;46.562;4.898;2022-07-15T02:32:50;24.10;61.80
7666;DHT22;3875;46.562;4.898;2022-07-15T02:35:16;24.00;61.50
7666;DHT22;3875;46.562;4.898;2022-07-15T02:37:42;24.10;61.60
7666;DHT22;3875;46.562;4.898;2022-07-15T02:40:09;24.10;61.40
7666;DHT22;3875;46.562;4.898;2022-07-15T02:42:35;24.10;61.40
7666;DHT22;3875;46.562;4.898;2022-07-15T02:45:01;24.10;61.50
7666;DHT22;3875;46.562;4.898;2022-07-15T02:47:27;24.00;61.60
7666;DHT22;3875;46.562;4.898;2022-07-15T02:49:52;23.90;61.80
7666;DHT22;3875;46.562;4.898;2022-07-15T02:52:18;23.90;61.70
7666;DHT22;3875;46.562;4.898;2022-07-15T02:54:44;23.90;61.80
7666;DHT22;3875;46.562;4.898;2022-07-15T02:57:09;23.90;61.60
7666;DHT22;3875;46.562;4.898;2022-07-15T02:59:35;23.90;61.70
7666;DHT22;3875;46.562;4.898;2022-07-15T03:02:01;23.90;61.70
7666;DHT22;3875;46.562;4.898;2022-07-15T03:04:27;23.80;61.70
7666;DHT22;3875;46.562;4.898;2022-07-15T03:06:53;23.80;61.70
7666;DHT22;3875;46.562;4.898;2022-07-15T03:09:18;23.80;61.90
7666;DHT22;3875;46.562;4.898;2022-07-15T03:11:44;23.70;62.00
7666;DHT22;3875;46.562;4.898;2022-07-15T03:14:10;23.80;61.90
7666;DHT22;3875;46.562;4.898;2022-07-15T03:16:36;23.80;61.80
7666;DHT22;3875;46.562;4.898;2022-07-15T03:19:01;23.80;62.00
7666;DHT22;3875;46.562;4.898;2022-07-15T03:21:27;23.80;62.00
7666;DHT22;3875;46.562;4.898;2022-07-15T03:23:53;23.70;62.00
7666;DHT22;3875;46.562;4.898;2022-07-15T03:26:20;23.70;62.20
7666;DHT22;3875;46.562;4.898;2022-07-15T03:28:46;23.60;62.40
7666;DHT22;3875;46.562;4.898;2022-07-15T03:31:12;23.50;62.40
7666;DHT22;3875;46.562;4.898;2022-07-15T03:33:38;23.50;62.60
7666;DHT22;3875;46.562;4.898;2022-07-15T03:36:04;23.40;62.90
7666;DHT22;3875;46.562;4.898;2022-07-15T03:38:31;23.30;62.80
7666;DHT22;3875;46.562;4.898;2022-07-15T03:40:57;23.20;63.00
7666;DHT22;3875;46.562;4.898;2022-07-15T03:43:22;23.20;63.10
7666;DHT22;3875;46.562;4.898;2022-07-15T03:45:52;23.20;63.00
7666;DHT22;3875;46.562;4.898;2022-07-15T03:48:19;23.10;63.00
7666;DHT22;3875;46.562;4.898;2022-07-15T03:50:45;23.10;63.00
7666;DHT22;3875;46.562;4.898;2022-07-15T03:53:10;23.10;63.00
7666;DHT22;3875;46.562;4.898;2022-07-15T03:55:36;23.10;63.20
7666;DHT22;3875;46.562;4.898;2022-07-15T03:58:04;23.00;63.30
7666;DHT22;3875;46.562;4.898;2022-07-15T04:00:30;23.00;63.40
7666;DHT22;3875;46.562;4.898;2022-07-15T04:02:55;22.90;63.50
7666;DHT22;3875;46.562;4.898;2022-07-15T04:05:21;22.90;63.30
7666;DHT22;3875;46.562;4.898;2022-07-15T04:07:47;22.90;63.40
7666;DHT22;3875;46.562;4.898;2022-07-15T04:10:13;22.90;63.30
7666;DHT22;3875;46.562;4.898;2022-07-15T04:12:40;23.00;63.20
7666;DHT22;3875;46.562;4.898;2022-07-15T04:15:07;23.00;63.30
7666;DHT22;3875;46.562;4.898;2022-07-15T04:17:33;23.00;63.30
7666;DHT22;3875;46.562;4.898;2022-07-15T04:19:59;23.00;63.40
7666;DHT22;3875;46.562;4.898;2022-07-15T04:22:25;23.00;63.50
7666;DHT22;3875;46.562;4.898;2022-07-15T04:24:50;23.00;63.40
7666;DHT22;3875;46.562;4.898;2022-07-15T04:27:16;23.00;63.50
7666;DHT22;3875;46.562;4.898;2022-07-15T04:29:42;23.00;63.60
7666;DHT22;3875;46.562;4.898;2022-07-15T04:32:08;23.00;63.40
7666;DHT22;3875;46.562;4.898;2022-07-15T04:34:33;23.10;63.20
7666;DHT22;3875;46.562;4.898;2022-07-15T04:36:59;23.10;63.20
7666;DHT22;3875;46.562;4.898;2022-07-15T04:39:25;23.20;63.00
7666;DHT22;3875;46.562;4.898;2022-07-15T04:41:51;23.20;63.00
7666;DHT22;3875;46.562;4.898;2022-07-15T04:44:18;23.20;63.00
7666;DHT22;3875;46.562;4.898;2022-07-15T04:46:44;23.20;63.00
7666;DHT22;3875;46.562;4.898;2022-07-15T04:49:09;23.20;63.20
7666;DHT22;3875;46.562;4.898;2022-07-15T04:51:54;23.20;63.00
7666;DHT22;3875;46.562;4.898;2022-07-15T04:54:19;23.40;63.00
7666;DHT22;3875;46.562;4.898;2022-07-15T04:56:45;23.40;62.80
7666;DHT22;3875;46.562;4.898;2022-07-15T04:59:11;23.50;62.70
7666;DHT22;3875;46.562;4.898;2022-07-15T05:01:36;23.60;62.80
7666;DHT22;3875;46.562;4.898;2022-07-15T05:04:02;23.60;62.70
7666;DHT22;3875;46.562;4.898;2022-07-15T05:06:28;23.60;62.70
7666;DHT22;3875;46.562;4.898;2022-07-15T05:08:54;23.60;62.80
7666;DHT22;3875;46.562;4.898;2022-07-15T05:11:19;23.70;62.90
7666;DHT22;3875;46.562;4.898;2022-07-15T05:13:45;23.70;62.80
7666;DHT22;3875;46.562;4.898;2022-07-15T05:16:11;23.70;62.70
7666;DHT22;3875;46.562;4.898;2022-07-15T05:18:36;23.70;62.90
7666;DHT22;3875;46.562;4.898;2022-07-15T05:21:03;23.80;62.60
7666;DHT22;3875;46.562;4.898;2022-07-15T05:23:28;23.80;62.70
7666;DHT22;3875;46.562;4.898;2022-07-15T05:25:54;23.90;62.60
7666;DHT22;3875;46.562;4.898;2022-07-15T05:28:20;23.90;62.60
7666;DHT22;3875;46.562;4.898;2022-07-15T05:30:46;23.90;62.50
7666;DHT22;3875;46.562;4.898;2022-07-15T05:33:14;23.90;62.60
7666;DHT22;3875;46.562;4.898;2022-07-15T05:35:40;23.90;62.80
7666;DHT22;3875;46.562;4.898;2022-07-15T05:38:06;24.00;62.60
7666;DHT22;3875;46.562;4.898;2022-07-15T05:40:32;24.10;62.30
7666;DHT22;3875;46.562;4.898;2022-07-15T05:42:59;24.10;62.20
7666;DHT22;3875;46.562;4.898;2022-07-15T05:45:24;24.10;62.60
7666;DHT22;3875;46.562;4.898;2022-07-15T05:47:51;24.10;62.40
7666;DHT22;3875;46.562;4.898;2022-07-15T05:50:18;24.20;62.50
7666;DHT22;3875;46.562;4.898;2022-07-15T05:52:44;24.20;62.30
7666;DHT22;3875;46.562;4.898;2022-07-15T05:55:10;24.30;62.40
7666;DHT22;3875;46.562;4.898;2022-07-15T05:57:36;24.40;62.20
7666;DHT22;3875;46.562;4.898;2022-07-15T06:00:03;24.40;61.90
7666;DHT22;3875;46.562;4.898;2022-07-15T06:02:29;24.40;61.80
7666;DHT22;3875;46.562;4.898;2022-07-15T06:04:56;24.50;61.90
7666;DHT22;3875;46.562;4.898;2022-07-15T06:07:22;24.70;61.70
7666;DHT22;3875;46.562;4.898;2022-07-15T06:09:48;24.80;61.00
7666;DHT22;3875;46.562;4.898;2022-07-15T06:12:16;24.70;61.30
7666;DHT22;3875;46.562;4.898;2022-07-15T06:14:42;24.70;61.30
7666;DHT22;3875;46.562;4.898;2022-07-15T06:17:08;24.70;61.90
7666;DHT22;3875;46.562;4.898;2022-07-15T06:19:34;24.70;61.50
7666;DHT22;3875;46.562;4.898;2022-07-15T06:22:00;24.80;61.90
7666;DHT22;3875;46.562;4.898;2022-07-15T06:24:26;24.90;61.50
7666;DHT22;3875;46.562;4.898;2022-07-15T06:26:52;25.10;61.70
7666;DHT22;3875;46.562;4.898;2022-07-15T06:29:18;25.20;61.60
7666;DHT22;3875;46.562;4.898;2022-07-15T06:31:44;25.20;61.10
7666;DHT22;3875;46.562;4.898;2022-07-15T06:34:10;25.20;61.00
7666;DHT22;3875;46.562;4.898;2022-07-15T06:36:36;25.30;60.70
7666;DHT22;3875;46.562;4.898;2022-07-15T06:39:03;25.30;61.20
7666;DHT22;3875;46.562;4.898;2022-07-15T06:41:29;25.20;61.20
7666;DHT22;3875;46.562;4.898;2022-07-15T06:43:57;25.20;61.10
7666;DHT22;3875;46.562;4.898;2022-07-15T06:46:23;25.20;61.20
7666;DHT22;3875;46.562;4.898;2022-07-15T06:48:48;25.20;61.70
7666;DHT22;3875;46.562;4.898;2022-07-15T06:51:14;25.20;61.20
7666;DHT22;3875;46.562;4.898;2022-07-15T06:53:40;25.10;61.10
7666;DHT22;3875;46.562;4.898;2022-07-15T06:56:06;25.10;61.60
7666;DHT22;3875;46.562;4.898;2022-07-15T06:58:31;25.10;62.10
7666;DHT22;3875;46.562;4.898;2022-07-15T07:00:57;25.20;61.70
7666;DHT22;3875;46.562;4.898;2022-07-15T07:03:24;25.30;62.10
7666;DHT22;3875;46.562;4.898;2022-07-15T07:05:50;25.50;61.50
7666;DHT22;3875;46.562;4.898;2022-07-15T07:08:16;25.80;61.40
7666;DHT22;3875;46.562;4.898;2022-07-15T07:10:42;26.10;60.90
7666;DHT22;3875;46.562;4.898;2022-07-15T07:13:09;26.20;60.50
7666;DHT22;3875;46.562;4.898;2022-07-15T07:15:35;26.20;60.50
7666;DHT22;3875;46.562;4.898;2022-07-15T07:18:00;26.40;60.10
7666;DHT22;3875;46.562;4.898;2022-07-15T07:20:26;26.40;59.80
7666;DHT22;3875;46.562;4.898;2022-07-15T07:22:52;26.30;60.00
7666;DHT22;3875;46.562;4.898;2022-07-15T07:25:18;26.20;60.10
7666;DHT22;3875;46.562;4.898;2022-07-15T07:27:43;26.00;60.50
7666;DHT22;3875;46.562;4.898;2022-07-15T07:30:09;26.10;60.80
7666;DHT22;3875;46.562;4.898;2022-07-15T07:32:35;26.20;60.40
7666;DHT22;3875;46.562;4.898;2022-07-15T07:35:01;26.20;60.60
7666;DHT22;3875;46.562;4.898;2022-07-15T07:37:27;26.40;60.80
7666;DHT22;3875;46.562;4.898;2022-07-15T07:39:53;26.70;60.60
7666;DHT22;3875;46.562;4.898;2022-07-15T07:42:19;26.90;59.90
7666;DHT22;3875;46.562;4.898;2022-07-15T07:44:45;27.00;59.00
7666;DHT22;3875;46.562;4.898;2022-07-15T07:47:11;27.10;59.10
7666;DHT22;3875;46.562;4.898;2022-07-15T07:49:37;27.00;59.40
7666;DHT22;3875;46.562;4.898;2022-07-15T07:52:03;27.00;59.30
7666;DHT22;3875;46.562;4.898;2022-07-15T07:54:30;26.90;59.40
7666;DHT22;3875;46.562;4.898;2022-07-15T07:56:55;26.90;59.10
7666;DHT22;3875;46.562;4.898;2022-07-15T07:59:21;27.20;58.80
7666;DHT22;3875;46.562;4.898;2022-07-15T08:01:47;27.50;58.70
7666;DHT22;3875;46.562;4.898;2022-07-15T08:04:12;27.50;58.70
7666;DHT22;3875;46.562;4.898;2022-07-15T08:06:40;27.60;58.60
7666;DHT22;3875;46.562;4.898;2022-07-15T08:09:06;27.70;58.00
7666;DHT22;3875;46.562;4.898;2022-07-15T08:11:32;27.90;58.30
7666;DHT22;3875;46.562;4.898;2022-07-15T08:13:59;27.90;57.60
7666;DHT22;3875;46.562;4.898;2022-07-15T08:16:24;27.80;57.80
7666;DHT22;3875;46.562;4.898;2022-07-15T08:18:50;27.90;57.70
7666;DHT22;3875;46.562;4.898;2022-07-15T08:21:16;27.80;57.90
7666;DHT22;3875;46.562;4.898;2022-07-15T08:23:42;27.80;58.00
7666;DHT22;3875;46.562;4.898;2022-07-15T08:26:07;27.80;57.90
7666;DHT22;3875;46.562;4.898;2022-07-15T08:28:36;27.90;57.70
7666;DHT22;3875;46.562;4.898;2022-07-15T08:31:01;28.20;57.20
7666;DHT22;3875;46.562;4.898;2022-07-15T08:33:28;28.30;57.40
7666;DHT22;3875;46.562;4.898;2022-07-15T08:35:54;28.70;56.70
7666;DHT22;3875;46.562;4.898;2022-07-15T08:38:20;28.90;56.40
7666;DHT22;3875;46.562;4.898;2022-07-15T08:40:46;29.10;56.80
7666;DHT22;3875;46.562;4.898;2022-07-15T08:43:12;29.30;56.10
7666;DHT22;3875;46.562;4.898;2022-07-15T08:45:39;29.60;55.70
7666;DHT22;3875;46.562;4.898;2022-07-15T08:48:08;29.70;55.20
7666;DHT22;3875;46.562;4.898;2022-07-15T08:50:34;29.70;55.60
7666;DHT22;3875;46.562;4.898;2022-07-15T08:53:01;29.60;54.60
7666;DHT22;3875;46.562;4.898;2022-07-15T08:55:26;29.30;55.40
7666;DHT22;3875;46.562;4.898;2022-07-15T08:57:53;29.20;55.50
7666;DHT22;3875;46.562;4.898;2022-07-15T09:00:21;29.20;55.60
7666;DHT22;3875;46.562;4.898;2022-07-15T09:02:48;29.50;55.30
7666;DHT22;3875;46.562;4.898;2022-07-15T09:07:57;29.60;54.90
7666;DHT22;3875;46.562;4.898;2022-07-15T09:10:47;30.00;55.00
7666;DHT22;3875;46.562;4.898;2022-07-15T09:13:57;30.30;53.90
7666;DHT22;3875;46.562;4.898;2022-07-15T09:16:18;30.60;53.80
7666;DHT22;3875;46.562;4.898;2022-07-15T09:18:50;30.90;53.10
7666;DHT22;3875;46.562;4.898;2022-07-15T09:21:26;30.80;53.40
7666;DHT22;3875;46.562;4.898;2022-07-15T09:23:53;30.60;53.30
7666;DHT22;3875;46.562;4.898;2022-07-15T09:26:31;30.80;52.90
7666;DHT22;3875;46.562;4.898;2022-07-15T09:29:02;30.70;52.90
7666;DHT22;3875;46.562;4.898;2022-07-15T09:31:36;30.60;53.40
7666;DHT22;3875;46.562;4.898;2022-07-15T09:34:34;30.60;53.60
7666;DHT22;3875;46.562;4.898;2022-07-15T09:37:03;30.50;53.20
7666;DHT22;3875;46.562;4.898;2022-07-15T09:39:30;30.40;52.90
7666;DHT22;3875;46.562;4.898;2022-07-15T09:42:05;30.50;53.80
7666;DHT22;3875;46.562;4.898;2022-07-15T09:44:32;30.80;53.30
7666;DHT22;3875;46.562;4.898;2022-07-15T09:47:01;31.00;52.50
7666;DHT22;3875;46.562;4.898;2022-07-15T09:51:56;31.20;52.50
7666;DHT22;3875;46.562;4.898;2022-07-15T09:56:52;31.80;51.90
7666;DHT22;3875;46.562;4.898;2022-07-15T09:59:19;31.70;51.60
7666;DHT22;3875;46.562;4.898;2022-07-15T10:01:45;31.80;51.80
7666;DHT22;3875;46.562;4.898;2022-07-15T10:04:19;31.90;52.10
7666;DHT22;3875;46.562;4.898;2022-07-15T10:06:47;32.30;51.30
7666;DHT22;3875;46.562;4.898;2022-07-15T10:09:13;32.10;51.40
7666;DHT22;3875;46.562;4.898;2022-07-15T10:11:45;32.20;52.00
7666;DHT22;3875;46.562;4.898;2022-07-15T10:14:46;32.30;50.80
7666;DHT22;3875;46.562;4.898;2022-07-15T10:17:51;32.30;50.80
7666;DHT22;3875;46.562;4.898;2022-07-15T10:28:52;32.10;51.10
7666;DHT22;3875;46.562;4.898;2022-07-15T10:31:23;32.30;51.50
7666;DHT22;3875;46.562;4.898;2022-07-15T10:39:21;33.20;49.50
7666;DHT22;3875;46.562;4.898;2022-07-15T10:42:01;33.30;50.10
7666;DHT22;3875;46.562;4.898;2022-07-15T10:44:32;33.40;49.70
7666;DHT22;3875;46.562;4.898;2022-07-15T10:49:41;33.20;50.30
7666;DHT22;3875;46.562;4.898;2022-07-15T10:54:42;33.30;49.10
7666;DHT22;3875;46.562;4.898;2022-07-15T10:57:09;33.10;49.30
7666;DHT22;3875;46.562;4.898;2022-07-15T10:59:37;33.10;49.70
7666;DHT22;3875;46.562;4.898;2022-07-15T11:04:33;33.60;49.50
7666;DHT22;3875;46.562;4.898;2022-07-15T11:09:48;33.90;49.50
7666;DHT22;3875;46.562;4.898;2022-07-15T11:12:15;34.20;47.40
7666;DHT22;3875;46.562;4.898;2022-07-15T11:20:00;34.60;47.80
7666;DHT22;3875;46.562;4.898;2022-07-15T11:22:28;34.50;47.80
7666;DHT22;3875;46.562;4.898;2022-07-15T11:24:55;34.40;47.90
7666;DHT22;3875;46.562;4.898;2022-07-15T11:27:23;34.20;46.70
7666;DHT22;3875;46.562;4.898;2022-07-15T11:29:51;34.40;47.30
7666;DHT22;3875;46.562;4.898;2022-07-15T11:32:19;34.60;47.30
7666;DHT22;3875;46.562;4.898;2022-07-15T11:34:52;35.10;46.70
7666;DHT22;3875;46.562;4.898;2022-07-15T11:37:24;35.10;45.10
7666;DHT22;3875;46.562;4.898;2022-07-15T11:40:16;34.60;45.90
7666;DHT22;3875;46.562;4.898;2022-07-15T11:43:03;34.50;46.70
7666;DHT22;3875;46.562;4.898;2022-07-15T11:45:48;34.70;47.40
7666;DHT22;3875;46.562;4.898;2022-07-15T11:48:14;34.50;45.70
7666;DHT22;3875;46.562;4.898;2022-07-15T11:50:54;34.60;45.90
7666;DHT22;3875;46.562;4.898;2022-07-15T11:53:21;34.70;47.00
7666;DHT22;3875;46.562;4.898;2022-07-15T11:55:52;35.00;45.90
7666;DHT22;3875;46.562;4.898;2022-07-15T11:58:36;35.10;46.30
7666;DHT22;3875;46.562;4.898;2022-07-15T12:01:14;35.00;45.80
7666;DHT22;3875;46.562;4.898;2022-07-15T12:03:45;35.30;45.20
7666;DHT22;3875;46.562;4.898;2022-07-15T12:08:53;35.00;45.00
7666;DHT22;3875;46.562;4.898;2022-07-15T12:11:30;34.60;46.70
7666;DHT22;3875;46.562;4.898;2022-07-15T12:13:58;34.50;46.10
7666;DHT22;3875;46.562;4.898;2022-07-15T12:19:17;35.00;45.00
7666;DHT22;3875;46.562;4.898;2022-07-15T12:21:45;35.30;45.70
7666;DHT22;3875;46.562;4.898;2022-07-15T12:24:14;35.60;45.00
7666;DHT22;3875;46.562;4.898;2022-07-15T12:29:23;36.20;45.10
7666;DHT22;3875;46.562;4.898;2022-07-15T12:31:57;36.10;43.70
7666;DHT22;3875;46.562;4.898;2022-07-15T12:37:16;36.10;44.40
7666;DHT22;3875;46.562;4.898;2022-07-15T12:40:09;36.00;44.20
7666;DHT22;3875;46.562;4.898;2022-07-15T12:42:44;35.60;44.40
7666;DHT22;3875;46.562;4.898;2022-07-15T12:45:21;35.50;44.10
7666;DHT22;3875;46.562;4.898;2022-07-15T12:53:21;35.10;43.10
7666;DHT22;3875;46.562;4.898;2022-07-15T12:55:48;34.70;43.90
7666;DHT22;3875;46.562;4.898;2022-07-15T12:58:16;34.80;44.30
7666;DHT22;3875;46.562;4.898;2022-07-15T13:00:44;34.80;44.30
7666;DHT22;3875;46.562;4.898;2022-07-15T13:03:20;34.80;44.30
7666;DHT22;3875;46.562;4.898;2022-07-15T13:05:51;35.00;43.70
7666;DHT22;3875;46.562;4.898;2022-07-15T13:08:29;35.30;44.20
7666;DHT22;3875;46.562;4.898;2022-07-15T13:10:57;35.50;44.20
7666;DHT22;3875;46.562;4.898;2022-07-15T13:13:24;35.70;43.80
7666;DHT22;3875;46.562;4.898;2022-07-15T13:15:50;35.60;43.30
7666;DHT22;3875;46.562;4.898;2022-07-15T13:18:17;35.30;44.00
7666;DHT22;3875;46.562;4.898;2022-07-15T13:20:44;35.20;43.70
7666;DHT22;3875;46.562;4.898;2022-07-15T13:23:10;35.40;44.20
7666;DHT22;3875;46.562;4.898;2022-07-15T13:25:37;35.50;44.00
7666;DHT22;3875;46.562;4.898;2022-07-15T13:28:06;35.30;43.10
7666;DHT22;3875;46.562;4.898;2022-07-15T13:30:33;35.40;44.20
7666;DHT22;3875;46.562;4.898;2022-07-15T13:32:59;35.50;43.70
7666;DHT22;3875;46.562;4.898;2022-07-15T13:35:25;35.50;43.30
7666;DHT22;3875;46.562;4.898;2022-07-15T13:37:51;35.30;44.10
7666;DHT22;3875;46.562;4.898;2022-07-15T13:40:18;35.40;43.90
7666;DHT22;3875;46.562;4.898;2022-07-15T13:42:44;35.60;43.10
7666;DHT22;3875;46.562;4.898;2022-07-15T13:45:11;35.60;43.30
7666;DHT22;3875;46.562;4.898;2022-07-15T13:47:37;35.40;43.90
7666;DHT22;3875;46.562;4.898;2022-07-15T13:50:04;35.50;44.50
7666;DHT22;3875;46.562;4.898;2022-07-15T13:52:51;35.60;44.10
7666;DHT22;3875;46.562;4.898;2022-07-15T13:55:20;35.70;44.20
7666;DHT22;3875;46.562;4.898;2022-07-15T13:57:46;35.40;44.30
7666;DHT22;3875;46.562;4.898;2022-07-15T14:00:15;35.40;44.10
7666;DHT22;3875;46.562;4.898;2022-07-15T14:02:45;35.10;43.90
7666;DHT22;3875;46.562;4.898;2022-07-15T14:05:12;34.90;44.20
7666;DHT22;3875;46.562;4.898;2022-07-15T14:07:39;35.20;45.10
7666;DHT22;3875;46.562;4.898;2022-07-15T14:10:06;35.30;44.50
7666;DHT22;3875;46.562;4.898;2022-07-15T14:12:31;35.20;44.30
7666;DHT22;3875;46.562;4.898;2022-07-15T14:14:57;35.10;44.20
7666;DHT22;3875;46.562;4.898;2022-07-15T14:17:23;34.80;43.70
7666;DHT22;3875;46.562;4.898;2022-07-15T14:19:49;34.60;44.60
7666;DHT22;3875;46.562;4.898;2022-07-15T14:22:15;34.70;45.50
7666;DHT22;3875;46.562;4.898;2022-07-15T14:24:41;34.70;44.80
7666;DHT22;3875;46.562;4.898;2022-07-15T14:27:08;34.50;44.70
7666;DHT22;3875;46.562;4.898;2022-07-15T14:29:34;34.60;45.10
7666;DHT22;3875;46.562;4.898;2022-07-15T14:32:00;34.50;44.30
7666;DHT22;3875;46.562;4.898;2022-07-15T14:34:25;34.20;44.80
7666;DHT22;3875;46.562;4.898;2022-07-15T14:36:51;34.00;45.20
7666;DHT22;3875;46.562;4.898;2022-07-15T14:39:17;33.80;45.60
7666;DHT22;3875;46.562;4.898;2022-07-15T14:41:42;33.90;45.20
7666;DHT22;3875;46.562;4.898;2022-07-15T14:44:08;34.10;44.70
7666;DHT22;3875;46.562;4.898;2022-07-15T14:46:34;34.00;44.80
7666;DHT22;3875;46.562;4.898;2022-07-15T14:49:00;33.80;45.10
7666;DHT22;3875;46.562;4.898;2022-07-15T14:51:26;33.70;44.60
7666;DHT22;3875;46.562;4.898;2022-07-15T14:53:51;33.60;45.70
7666;DHT22;3875;46.562;4.898;2022-07-15T14:56:17;33.90;45.30
7666;DHT22;3875;46.562;4.898;2022-07-15T14:58:43;34.00;44.70
7666;DHT22;3875;46.562;4.898;2022-07-15T15:01:09;34.20;44.40
7666;DHT22;3875;46.562;4.898;2022-07-15T15:03:34;34.20;44.70
7666;DHT22;3875;46.562;4.898;2022-07-15T15:06:00;33.90;44.00
7666;DHT22;3875;46.562;4.898;2022-07-15T15:08:26;33.60;45.00
7666;DHT22;3875;46.562;4.898;2022-07-15T15:10:52;33.70;44.90
7666;DHT22;3875;46.562;4.898;2022-07-15T15:13:18;33.80;44.80
7666;DHT22;3875;46.562;4.898;2022-07-15T15:15:44;33.60;43.90
7666;DHT22;3875;46.562;4.898;2022-07-15T15:18:10;33.60;45.00
7666;DHT22;3875;46.562;4.898;2022-07-15T15:20:36;33.60;44.80
7666;DHT22;3875;46.562;4.898;2022-07-15T15:23:02;33.70;44.80
7666;DHT22;3875;46.562;4.898;2022-07-15T15:25:28;33.60;44.60
7666;DHT22;3875;46.562;4.898;2022-07-15T15:28:12;33.70;44.90
7666;DHT22;3875;46.562;4.898;2022-07-15T15:30:38;33.70;44.90
7666;DHT22;3875;46.562;4.898;2022-07-15T15:33:04;33.60;44.40
7666;DHT22;3875;46.562;4.898;2022-07-15T15:35:30;33.40;45.00
7666;DHT22;3875;46.562;4.898;2022-07-15T15:37:55;33.30;44.60
7666;DHT22;3875;46.562;4.898;2022-07-15T15:40:21;33.30;45.30
7666;DHT22;3875;46.562;4.898;2022-07-15T15:42:47;33.30;44.40
7666;DHT22;3875;46.562;4.898;2022-07-15T15:45:13;33.20;44.70
7666;DHT22;3875;46.562;4.898;2022-07-15T15:47:40;33.30;44.50
7666;DHT22;3875;46.562;4.898;2022-07-15T15:50:06;33.30;44.70
7666;DHT22;3875;46.562;4.898;2022-07-15T15:52:31;33.50;44.90
7666;DHT22;3875;46.562;4.898;2022-07-15T15:54:57;33.70;44.10
7666;DHT22;3875;46.562;4.898;2022-07-15T15:57:23;33.70;43.70
7666;DHT22;3875;46.562;4.898;2022-07-15T15:59:48;33.70;43.60
7666;DHT22;3875;46.562;4.898;2022-07-15T16:02:14;33.70;44.00
7666;DHT22;3875;46.562;4.898;2022-07-15T16:04:41;33.80;43.80
7666;DHT22;3875;46.562;4.898;2022-07-15T16:07:07;34.00;44.00
7666;DHT22;3875;46.562;4.898;2022-07-15T16:09:33;34.10;44.40
7666;DHT22;3875;46.562;4.898;2022-07-15T16:11:59;34.30;43.60
7666;DHT22;3875;46.562;4.898;2022-07-15T16:14:25;34.30;43.90
7666;DHT22;3875;46.562;4.898;2022-07-15T16:16:50;34.30;43.60
7666;DHT22;3875;46.562;4.898;2022-07-15T16:19:16;34.10;43.20
7666;DHT22;3875;46.562;4.898;2022-07-15T16:21:42;33.80;43.10
7666;DHT22;3875;46.562;4.898;2022-07-15T16:24:26;33.70;43.60
7666;DHT22;3875;46.562;4.898;2022-07-15T16:26:52;33.90;43.70
7666;DHT22;3875;46.562;4.898;2022-07-15T16:29:18;34.30;43.50
7666;DHT22;3875;46.562;4.898;2022-07-15T16:31:44;34.20;43.20
7666;DHT22;3875;46.562;4.898;2022-07-15T16:34:10;34.20;42.90
7666;DHT22;3875;46.562;4.898;2022-07-15T16:36:35;34.20;43.40
7666;DHT22;3875;46.562;4.898;2022-07-15T16:39:01;34.40;42.70
7666;DHT22;3875;46.562;4.898;2022-07-15T16:41:27;34.40;42.10
7666;DHT22;3875;46.562;4.898;2022-07-15T16:43:52;34.70;42.10
7666;DHT22;3875;46.562;4.898;2022-07-15T16:46:18;35.30;41.80
7666;DHT22;3875;46.562;4.898;2022-07-15T16:48:44;35.50;41.50
7666;DHT22;3875;46.562;4.898;2022-07-15T16:51:10;35.90;40.70
7666;DHT22;3875;46.562;4.898;2022-07-15T16:53:35;36.20;40.60
7666;DHT22;3875;46.562;4.898;2022-07-15T16:56:01;36.10;40.40
7666;DHT22;3875;46.562;4.898;2022-07-15T16:58:27;35.60;41.40